createdAt,value
2018-11-21T00:02:13.829Z,6.50
2018-11-21T00:04:40.703Z,7.10
2018-11-21T00:07:09.268Z,7.05
2018-11-21T00:09:36.520Z,8.58
2018-11-21T00:12:03.324Z,7.47
2018-11-21T00:14:30.271Z,7.30
2018-11-21T00:16:57.157Z,7.47
2018-11-21T00:19:24.028Z,6.53
2018-11-21T00:21:50.483Z,8.03
2018-11-21T00:24:17.373Z,7.10
2018-11-21T00:26:43.917Z,7.35
2018-11-21T00:29:14.408Z,7.17
2018-11-21T00:31:39.037Z,7.42
2018-11-21T00:34:06.040Z,7.33
2018-11-21T00:36:33.065Z,8.00
2018-11-21T00:38:59.638Z,8.18
2018-11-21T00:41:26.423Z,8.28
2018-11-21T00:43:52.984Z,6.95
2018-11-21T00:46:19.583Z,7.45
2018-11-21T00:48:46.425Z,6.55
2018-11-21T00:51:13.984Z,7.03
2018-11-21T00:53:40.856Z,6.53
2018-11-21T00:56:07.582Z,6.70
2018-11-21T00:58:34.634Z,6.50
2018-11-21T01:01:01.497Z,7.83
2018-11-21T01:03:28.319Z,7.12
2018-11-21T01:05:55.077Z,7.15
2018-11-21T01:08:21.901Z,6.37
2018-11-21T01:10:48.482Z,7.58
2018-11-21T01:13:15.392Z,7.80
2018-11-21T01:15:42.225Z,8.68
2018-11-21T01:18:09.090Z,7.33
2018-11-21T01:20:35.961Z,8.20
2018-11-21T01:23:03.005Z,8.48
2018-11-21T01:25:29.859Z,7.70
2018-11-21T01:27:56.874Z,7.00
2018-11-21T01:30:23.479Z,5.87
2018-11-21T01:32:50.071Z,6.08
2018-11-21T01:35:16.731Z,6.12
2018-11-21T01:37:43.336Z,6.33
2018-11-21T01:40:10.175Z,5.83
2018-11-21T01:42:37.083Z,5.28
2018-11-21T01:45:04.023Z,6.83
2018-11-21T01:47:30.982Z,5.75
2018-11-21T01:49:58.039Z,5.92
2018-11-21T01:52:25.391Z,5.17
2018-11-21T01:54:52.343Z,6.22
2018-11-21T01:57:19.072Z,6.15
2018-11-21T01:59:45.911Z,5.08
2018-11-21T02:02:12.948Z,5.80
2018-11-21T02:04:39.838Z,6.25
2018-11-21T02:07:06.829Z,6.08
2018-11-21T02:09:33.869Z,5.85
2018-11-21T02:12:00.425Z,5.17
2018-11-21T02:14:27.042Z,5.90
2018-11-21T02:16:54.053Z,5.55
2018-11-21T02:19:20.717Z,5.90
2018-11-21T02:21:47.476Z,5.12
2018-11-21T02:24:14.280Z,5.55
2018-11-21T02:26:41.010Z,6.00
2018-11-21T02:29:07.826Z,5.47
2018-11-21T02:31:34.417Z,5.70
2018-11-21T02:34:01.043Z,7.15
2018-11-21T02:36:28.037Z,5.33
2018-11-21T02:38:55.025Z,6.00
2018-11-21T02:41:21.584Z,5.70
2018-11-21T02:43:48.379Z,5.40
2018-11-21T02:46:15.004Z,5.62
2018-11-21T02:48:42.010Z,6.42
2018-11-21T02:51:08.770Z,6.75
2018-11-21T02:53:35.792Z,5.60
2018-11-21T02:56:02.463Z,5.67
2018-11-21T02:58:29.260Z,4.92
2018-11-21T03:00:56.090Z,6.37
2018-11-21T03:03:22.800Z,6.45
2018-11-21T03:05:49.543Z,5.65
2018-11-21T03:08:16.385Z,6.03
2018-11-21T03:10:43.230Z,5.55
2018-11-21T03:13:10.103Z,5.83
2018-11-21T03:15:37.131Z,5.10
2018-11-21T03:18:04.041Z,5.45
2018-11-21T03:20:30.802Z,5.80
2018-11-21T03:22:57.750Z,6.40
2018-11-21T03:25:24.766Z,6.00
2018-11-21T03:27:51.610Z,5.58
2018-11-21T03:30:18.287Z,6.12
2018-11-21T03:32:45.427Z,6.20
2018-11-21T03:35:12.403Z,6.30
2018-11-21T03:37:39.018Z,6.05
2018-11-21T03:40:05.910Z,6.05
2018-11-21T03:42:32.507Z,6.05
2018-11-21T03:44:59.373Z,6.37
2018-11-21T03:47:26.031Z,6.72
2018-11-21T03:49:52.769Z,6.90
2018-11-21T03:52:19.556Z,6.33
2018-11-21T03:54:46.495Z,7.05
2018-11-21T03:57:13.676Z,7.00
2018-11-21T03:59:40.549Z,6.42
2018-11-21T04:02:07.397Z,6.72
2018-11-21T04:04:34.296Z,5.72
2018-11-21T04:07:01.341Z,7.22
2018-11-21T04:09:28.174Z,6.10
2018-11-21T04:11:54.758Z,7.30
2018-11-21T04:14:21.561Z,5.37
2018-11-21T04:16:48.163Z,6.90
2018-11-21T04:19:14.935Z,6.53
2018-11-21T04:21:41.893Z,6.40
2018-11-21T04:24:09.925Z,6.62
2018-11-21T04:26:35.276Z,6.20
2018-11-21T04:29:02.436Z,7.10
2018-11-21T04:31:29.052Z,6.60
2018-11-21T04:33:55.724Z,6.20
2018-11-21T04:36:22.487Z,6.92
2018-11-21T04:38:49.681Z,6.25
2018-11-21T04:41:16.515Z,7.00
2018-11-21T04:43:43.572Z,6.22
2018-11-21T04:46:10.326Z,6.67
2018-11-21T04:48:37.149Z,5.80
2018-11-21T04:51:04.252Z,6.05
2018-11-21T04:53:30.956Z,5.50
2018-11-21T04:55:57.947Z,6.22
2018-11-21T04:58:24.590Z,6.12
2018-11-21T05:00:52.383Z,6.25
2018-11-21T05:03:19.240Z,5.75
2018-11-21T05:05:46.650Z,6.20
2018-11-21T05:08:13.540Z,6.30
2018-11-21T05:10:40.115Z,6.55
2018-11-21T05:13:06.989Z,5.47
2018-11-21T05:15:33.759Z,6.22
2018-11-21T05:18:00.506Z,6.15
2018-11-21T05:20:27.383Z,6.72
2018-11-21T05:22:54.051Z,7.58
2018-11-21T05:25:21.317Z,8.15
2018-11-21T05:27:48.180Z,6.62
2018-11-21T05:30:15.546Z,6.15
2018-11-21T05:32:42.419Z,6.10
2018-11-21T05:35:08.991Z,6.10
2018-11-21T05:37:35.744Z,6.20
2018-11-21T05:40:02.392Z,5.80
2018-11-21T05:42:29.390Z,5.92
2018-11-21T05:44:56.565Z,7.55
2018-11-21T05:47:23.631Z,6.08
2018-11-21T05:49:50.278Z,7.15
2018-11-21T05:52:17.234Z,7.20
2018-11-21T05:54:43.992Z,6.35
2018-11-21T05:57:10.771Z,7.25
2018-11-21T05:59:37.348Z,7.47
2018-11-21T06:02:04.193Z,8.58
2018-11-21T06:04:30.835Z,6.58
2018-11-21T06:06:57.628Z,5.60
2018-11-21T06:09:24.472Z,6.42
2018-11-21T06:11:51.636Z,6.53
2018-11-21T06:14:19.028Z,6.08
2018-11-21T06:16:46.278Z,4.72
2018-11-21T06:19:13.267Z,6.42
2018-11-21T06:21:40.139Z,8.68
2018-11-21T06:24:06.799Z,6.78
2018-11-21T06:26:34.277Z,6.08
2018-11-21T06:29:00.998Z,6.60
2018-11-21T06:31:28.210Z,6.53
2018-11-21T06:33:54.860Z,7.15
2018-11-21T06:36:21.618Z,6.65
2018-11-21T06:38:48.792Z,8.45
2018-11-21T06:41:15.565Z,9.35
2018-11-21T06:43:42.477Z,9.65
2018-11-21T06:46:09.106Z,9.93
2018-11-21T06:48:35.862Z,9.38
2018-11-21T06:51:02.769Z,8.98
2018-11-21T06:53:29.476Z,8.60
2018-11-21T06:55:56.638Z,8.08
2018-11-21T06:58:23.319Z,11.05
2018-11-21T07:00:50.164Z,9.75
2018-11-21T07:03:17.148Z,10.58
2018-11-21T07:05:43.997Z,11.03
2018-11-21T07:08:10.664Z,9.80
2018-11-21T07:10:37.321Z,8.45
2018-11-21T07:13:04.185Z,7.15
2018-11-21T07:15:30.817Z,8.58
2018-11-21T07:17:57.402Z,7.20
2018-11-21T07:20:24.266Z,9.33
2018-11-21T07:22:51.325Z,8.10
2018-11-21T07:25:17.906Z,8.28
2018-11-21T07:27:44.770Z,8.13
2018-11-21T07:30:11.417Z,8.28
2018-11-21T07:32:38.185Z,7.70
2018-11-21T07:35:05.160Z,7.97
2018-11-21T07:37:32.285Z,8.43
2018-11-21T07:39:58.791Z,7.15
2018-11-21T07:42:25.482Z,8.20
2018-11-21T07:44:52.119Z,7.28
2018-11-21T07:47:19.075Z,8.23
2018-11-21T07:49:46.305Z,7.90
2018-11-21T07:52:13.119Z,7.65
2018-11-21T07:54:39.867Z,7.58
2018-11-21T07:57:06.540Z,7.80
2018-11-21T07:59:33.033Z,7.60
2018-11-21T08:01:59.803Z,7.72
2018-11-21T08:04:26.663Z,7.95
2018-11-21T08:06:54.212Z,7.55
2018-11-21T08:09:20.999Z,10.03
2018-11-21T08:11:48.102Z,7.47
2018-11-21T08:14:16.600Z,7.65
2018-11-21T08:16:43.129Z,6.97
2018-11-21T08:19:09.739Z,7.35
2018-11-21T08:21:36.447Z,6.95
2018-11-21T08:24:03.180Z,6.97
2018-11-21T08:26:30.026Z,8.50
2018-11-21T08:28:56.683Z,8.08
2018-11-21T08:31:23.345Z,8.20
2018-11-21T08:33:49.883Z,9.05
2018-11-21T08:36:16.563Z,7.80
2018-11-21T08:38:43.109Z,7.78
2018-11-21T08:41:09.649Z,7.90
2018-11-21T08:43:36.345Z,7.28
2018-11-21T08:46:02.879Z,7.65
2018-11-21T08:48:29.457Z,8.25
2018-11-21T08:50:56.069Z,7.00
2018-11-21T08:53:22.869Z,7.70
2018-11-21T08:55:49.663Z,7.75
2018-11-21T08:58:16.310Z,7.00
2018-11-21T09:00:44.325Z,7.95
2018-11-21T09:03:10.956Z,7.33
2018-11-21T09:05:37.512Z,8.23
2018-11-21T09:08:04.259Z,7.12
2018-11-21T09:12:57.185Z,8.13
2018-11-21T09:15:23.855Z,6.92
2018-11-21T09:17:50.405Z,6.72
2018-11-21T09:20:18.379Z,6.95
2018-11-21T09:22:44.950Z,6.70
2018-11-21T09:25:11.490Z,7.00
2018-11-21T09:27:38.177Z,6.60
2018-11-21T09:30:04.685Z,6.45
2018-11-21T09:32:31.506Z,7.95
2018-11-21T09:34:58.307Z,6.62
2018-11-21T09:37:25.141Z,6.87
2018-11-21T09:39:51.776Z,7.35
2018-11-21T09:42:18.859Z,7.53
2018-11-21T09:44:45.309Z,7.65
2018-11-21T09:47:11.976Z,7.60
2018-11-21T09:49:38.637Z,7.58
2018-11-21T09:52:07.389Z,8.20
2018-11-21T09:54:34.086Z,7.83
2018-11-21T09:57:01.852Z,7.83
2018-11-21T09:59:28.482Z,7.42
2018-11-21T10:01:55.180Z,8.23
2018-11-21T10:04:21.867Z,8.65
2018-11-21T10:06:48.423Z,8.48
2018-11-21T10:09:15.021Z,7.97
2018-11-21T10:11:41.731Z,7.90
2018-11-21T10:14:08.268Z,11.10
2018-11-21T10:16:34.862Z,9.30
2018-11-21T10:19:01.396Z,8.80
2018-11-21T10:21:28.570Z,8.40
2018-11-21T10:23:55.252Z,7.92
2018-11-21T10:26:21.802Z,7.65
2018-11-21T10:28:48.466Z,7.83
2018-11-21T10:31:14.995Z,8.50
2018-11-21T10:33:41.577Z,8.78
2018-11-21T10:36:08.218Z,8.90
2018-11-21T10:38:34.788Z,7.97
2018-11-21T10:41:01.365Z,8.68
2018-11-21T10:43:28.492Z,7.90
2018-11-21T10:45:54.894Z,8.70
2018-11-21T10:48:21.835Z,7.70
2018-11-21T10:50:48.393Z,7.95
2018-11-21T10:53:15.064Z,8.15
2018-11-21T10:55:41.716Z,7.05
2018-11-21T10:58:08.367Z,8.53
2018-11-21T11:00:35.049Z,8.35
2018-11-21T11:03:01.717Z,9.45
2018-11-21T11:05:28.370Z,8.65
2018-11-21T11:07:55.127Z,8.63
2018-11-21T11:10:21.891Z,8.05
2018-11-21T11:12:48.550Z,8.18
2018-11-21T11:15:15.126Z,7.53
2018-11-21T11:17:41.749Z,9.23
2018-11-21T11:20:08.706Z,9.03
2018-11-21T11:22:34.989Z,9.18
2018-11-21T11:25:01.660Z,8.95
2018-11-21T11:27:28.315Z,9.53
2018-11-21T11:29:55.064Z,9.10
2018-11-21T11:32:21.925Z,9.40
2018-11-21T11:34:48.584Z,8.13
2018-11-21T11:37:15.269Z,8.80
2018-11-21T11:39:41.831Z,8.55
2018-11-21T11:42:08.573Z,8.95
2018-11-21T11:44:35.297Z,9.43
2018-11-21T11:47:02.322Z,9.15
2018-11-21T11:49:29.001Z,10.00
2018-11-21T11:51:55.725Z,8.88
2018-11-21T11:54:22.619Z,9.48
2018-11-21T11:56:49.162Z,8.73
2018-11-21T11:59:15.696Z,9.23
2018-11-21T12:01:43.590Z,8.73
2018-11-21T12:04:10.262Z,10.20
2018-11-21T12:06:36.802Z,10.08
2018-11-21T12:09:03.392Z,10.40
2018-11-21T12:11:30.143Z,9.65
2018-11-21T12:13:57.009Z,8.90
2018-11-21T12:16:23.887Z,10.23
2018-11-21T12:18:50.429Z,9.18
2018-11-21T12:21:17.096Z,10.38
2018-11-21T12:23:43.641Z,9.80
2018-11-21T12:26:10.767Z,10.30
2018-11-21T12:28:36.861Z,11.28
2018-11-21T12:31:03.613Z,9.90
2018-11-21T12:33:30.304Z,10.30
2018-11-21T12:35:57.076Z,10.23
2018-11-21T12:38:23.906Z,10.05
2018-11-21T12:40:50.478Z,11.15
2018-11-21T12:43:17.077Z,11.33
2018-11-21T12:45:43.750Z,12.10
2018-11-21T12:48:10.523Z,12.28
2018-11-21T12:50:36.997Z,12.20
2018-11-21T12:53:03.760Z,12.18
2018-11-21T12:55:30.304Z,12.33
2018-11-21T12:57:56.899Z,12.23
2018-11-21T13:00:23.546Z,11.22
2018-11-21T13:02:50.218Z,13.43
2018-11-21T13:05:16.744Z,10.45
2018-11-21T13:07:43.446Z,12.90
2018-11-21T13:10:10.199Z,12.25
2018-11-21T13:12:36.752Z,10.58
2018-11-21T13:15:03.417Z,12.13
2018-11-21T13:17:29.944Z,11.55
2018-11-21T13:19:56.623Z,12.50
2018-11-21T13:22:23.291Z,11.43
2018-11-21T13:24:49.819Z,10.95
2018-11-21T13:27:16.368Z,11.50
2018-11-21T13:29:43.045Z,11.28
2018-11-21T13:32:09.694Z,13.40
2018-11-21T13:34:36.257Z,11.60
2018-11-21T13:37:02.928Z,12.50
2018-11-21T13:39:29.473Z,12.78
2018-11-21T13:41:56.027Z,11.70
2018-11-21T13:44:22.602Z,10.98
2018-11-21T13:46:49.364Z,11.48
2018-11-21T13:49:16.013Z,12.80
2018-11-21T13:51:42.990Z,12.65
2018-11-21T13:54:09.235Z,12.43
2018-11-21T13:56:35.684Z,12.13
2018-11-21T13:59:02.443Z,11.45
2018-11-21T14:01:29.000Z,12.28
2018-11-21T14:03:55.702Z,11.48
2018-11-21T14:06:22.349Z,11.97
2018-11-21T14:08:49.010Z,10.25
2018-11-21T14:11:15.547Z,12.03
2018-11-21T14:13:42.216Z,10.93
2018-11-21T14:16:08.864Z,11.20
2018-11-21T14:18:35.745Z,9.58
2018-11-21T14:21:02.507Z,10.03
2018-11-21T14:23:29.266Z,9.65
2018-11-21T14:25:55.826Z,10.32
2018-11-21T14:28:22.589Z,10.53
2018-11-21T14:30:49.248Z,11.03
2018-11-21T14:33:15.706Z,11.03
2018-11-21T14:35:42.469Z,10.43
2018-11-21T14:38:09.342Z,11.63
2018-11-21T14:40:36.193Z,11.15
2018-11-21T14:43:02.754Z,11.08
2018-11-21T14:45:29.412Z,10.40
2018-11-21T14:47:56.076Z,9.98
2018-11-21T14:50:23.241Z,10.60
2018-11-21T14:52:49.792Z,9.90
2018-11-21T14:55:16.542Z,10.72
2018-11-21T14:57:43.162Z,10.05
2018-11-21T15:00:09.786Z,11.12
2018-11-21T15:02:36.447Z,10.10
2018-11-21T15:05:03.940Z,11.63
2018-11-21T15:07:30.688Z,9.48
2018-11-21T15:09:57.353Z,11.08
2018-11-21T15:12:23.880Z,10.40
2018-11-21T15:14:50.566Z,10.28
2018-11-21T15:17:17.240Z,9.50
2018-11-21T15:19:43.808Z,9.93
2018-11-21T15:22:10.350Z,10.32
2018-11-21T15:24:37.898Z,9.73
2018-11-21T15:27:04.692Z,10.38
2018-11-21T15:29:31.565Z,10.28
2018-11-21T15:31:58.256Z,9.23
2018-11-21T15:34:25.273Z,9.23
2018-11-21T15:36:52.022Z,9.60
2018-11-21T15:39:18.594Z,10.25
2018-11-21T15:41:45.238Z,11.18
2018-11-21T15:44:11.830Z,9.68
2018-11-21T15:46:38.395Z,10.20
2018-11-21T15:49:07.272Z,9.28
2018-11-21T15:51:32.044Z,10.32
2018-11-21T15:53:58.916Z,9.68
2018-11-21T15:56:25.561Z,11.10
2018-11-21T15:58:52.198Z,11.83
2018-11-21T16:01:18.749Z,11.63
2018-11-21T16:03:45.376Z,9.85
2018-11-21T16:06:11.964Z,9.55
2018-11-21T16:08:38.642Z,9.20
2018-11-21T16:11:05.556Z,9.55
2018-11-21T16:13:32.372Z,9.85
2018-11-21T16:16:01.951Z,10.43
2018-11-21T16:18:28.435Z,9.20
2018-11-21T16:20:55.085Z,8.40
2018-11-21T16:23:21.719Z,9.90
2018-11-21T16:25:48.297Z,9.33
2018-11-21T16:28:14.927Z,8.80
2018-11-21T16:30:41.453Z,9.80
2018-11-21T16:33:08.629Z,8.45
2018-11-21T16:35:35.673Z,10.00
2018-11-21T16:38:02.365Z,9.73
2018-11-21T16:40:28.994Z,10.68
2018-11-21T16:42:56.874Z,9.90
2018-11-21T16:45:23.429Z,10.60
2018-11-21T16:47:50.213Z,10.60
2018-11-21T16:50:16.831Z,11.97
2018-11-21T16:52:43.435Z,11.78
2018-11-21T16:55:10.204Z,10.05
2018-11-21T16:57:36.764Z,10.58
2018-11-21T17:00:03.502Z,10.82
2018-11-21T17:02:30.295Z,11.25
2018-11-21T17:04:57.033Z,12.33
2018-11-21T17:07:23.579Z,10.80
2018-11-21T17:09:50.209Z,11.93
2018-11-21T17:12:16.902Z,12.68
2018-11-21T17:14:43.556Z,13.50
2018-11-21T17:17:10.211Z,13.25
2018-11-21T17:19:37.265Z,13.43
2018-11-21T17:22:04.179Z,13.78
2018-11-21T17:24:30.668Z,12.13
2018-11-21T17:26:57.285Z,12.05
2018-11-21T17:29:23.841Z,12.95
2018-11-21T17:31:50.702Z,12.75
2018-11-21T17:34:17.809Z,10.38
2018-11-21T17:36:44.428Z,12.58
2018-11-21T17:39:11.098Z,11.33
2018-11-21T17:41:38.077Z,11.10
2018-11-21T17:44:04.630Z,12.45
2018-11-21T17:46:31.144Z,12.37
2018-11-21T17:48:58.144Z,12.63
2018-11-21T17:51:26.654Z,12.00
2018-11-21T17:53:51.371Z,11.95
2018-11-21T17:56:18.089Z,12.05
2018-11-21T17:58:44.704Z,12.23
2018-11-21T18:01:11.342Z,13.55
2018-11-21T18:03:38.141Z,12.43
2018-11-21T18:06:05.056Z,13.93
2018-11-21T18:08:31.515Z,11.68
2018-11-21T18:10:58.457Z,12.37
2018-11-21T18:13:25.276Z,12.00
2018-11-21T18:15:52.017Z,11.70
2018-11-21T18:18:18.976Z,12.58
2018-11-21T18:20:45.798Z,12.50
2018-11-21T18:23:13.402Z,11.45
2018-11-21T18:25:40.234Z,11.55
2018-11-21T18:28:07.047Z,12.20
2018-11-21T18:30:33.805Z,13.75
2018-11-21T18:33:00.499Z,13.50
2018-11-21T18:35:27.469Z,13.08
2018-11-21T18:37:54.204Z,13.20
2018-11-21T18:40:20.868Z,11.10
2018-11-21T18:42:47.603Z,12.00
2018-11-21T18:45:14.021Z,12.78
2018-11-21T18:47:40.903Z,13.18
2018-11-21T18:50:11.118Z,12.82
2018-11-21T18:52:34.106Z,12.80
2018-11-21T18:55:00.726Z,13.75
2018-11-21T18:57:27.412Z,13.20
2018-11-21T18:59:54.068Z,14.47
2018-11-21T19:02:20.717Z,14.90
2018-11-21T19:04:47.144Z,14.07
2018-11-21T19:07:13.747Z,13.20
2018-11-21T19:09:40.330Z,14.45
2018-11-21T19:12:07.026Z,15.53
2018-11-21T19:14:33.587Z,15.55
2018-11-21T19:17:00.467Z,14.75
2018-11-21T19:19:27.167Z,15.35
2018-11-21T19:21:54.046Z,15.28
2018-11-21T19:24:20.647Z,13.13
2018-11-21T19:26:47.367Z,13.65
2018-11-21T19:29:14.147Z,14.07
2018-11-21T19:31:40.948Z,12.82
2018-11-21T19:34:07.506Z,12.70
2018-11-21T19:36:34.372Z,13.68
2018-11-21T19:39:01.115Z,12.85
2018-11-21T19:41:27.831Z,12.03
2018-11-21T19:43:54.378Z,13.90
2018-11-21T19:46:21.183Z,11.25
2018-11-21T19:48:47.674Z,12.10
2018-11-21T19:51:14.174Z,12.10
2018-11-21T19:56:07.881Z,11.78
2018-11-21T19:58:34.439Z,13.65
2018-11-21T20:01:01.047Z,12.70
2018-11-21T20:03:27.602Z,12.68
2018-11-21T20:05:54.197Z,13.70
2018-11-21T20:08:21.459Z,12.33
2018-11-21T20:10:48.264Z,13.65
2018-11-21T20:13:14.781Z,12.88
2018-11-21T20:15:41.693Z,12.65
2018-11-21T20:18:08.415Z,12.58
2018-11-21T20:20:35.071Z,13.93
2018-11-21T20:23:06.523Z,13.70
2018-11-21T20:25:28.659Z,12.55
2018-11-21T20:27:55.371Z,12.10
2018-11-21T20:30:22.421Z,13.28
2018-11-21T20:32:49.181Z,12.75
2018-11-21T20:35:15.981Z,12.55
2018-11-21T20:37:42.735Z,13.45
2018-11-21T20:40:09.580Z,11.43
2018-11-21T20:42:36.254Z,12.93
2018-11-21T20:45:03.205Z,12.00
2018-11-21T20:47:29.834Z,13.03
2018-11-21T20:49:56.335Z,12.78
2018-11-21T20:52:22.902Z,12.35
2018-11-21T20:54:49.413Z,11.83
2018-11-21T20:57:16.673Z,12.85
2018-11-21T20:59:43.394Z,14.13
2018-11-21T21:02:10.079Z,12.37
2018-11-21T21:04:36.622Z,13.72
2018-11-21T21:07:03.362Z,13.00
2018-11-21T21:09:30.017Z,13.65
2018-11-21T21:11:56.653Z,13.68
2018-11-21T21:14:23.235Z,12.23
2018-11-21T21:16:49.896Z,13.00
2018-11-21T21:19:16.864Z,11.95
2018-11-21T21:21:43.756Z,11.70
2018-11-21T21:24:10.223Z,11.85
2018-11-21T21:26:36.853Z,12.82
2018-11-21T21:29:03.614Z,13.72
2018-11-21T21:31:30.120Z,13.60
2018-11-21T21:33:56.793Z,12.88
2018-11-21T21:36:23.588Z,14.07
2018-11-21T21:38:50.359Z,14.38
2018-11-21T21:41:17.019Z,14.38
2018-11-21T21:43:43.839Z,14.00
2018-11-21T21:46:10.349Z,13.78
2018-11-21T21:48:37.126Z,12.07
2018-11-21T21:51:04.153Z,13.08
2018-11-21T21:53:31.308Z,14.80
2018-11-21T21:55:58.120Z,12.75
2018-11-21T21:58:24.843Z,13.68
2018-11-21T22:00:54.829Z,13.85
2018-11-21T22:03:21.875Z,12.98
2018-11-21T22:05:48.797Z,13.15
2018-11-21T22:08:15.644Z,13.15
2018-11-21T22:10:42.302Z,12.05
2018-11-21T22:13:08.941Z,13.55
2018-11-21T22:15:35.577Z,13.75
2018-11-21T22:18:02.218Z,13.98
2018-11-21T22:20:28.989Z,11.45
2018-11-21T22:22:58.563Z,12.23
2018-11-21T22:25:25.467Z,13.65
2018-11-21T22:27:52.140Z,14.35
2018-11-21T22:30:19.083Z,13.70
2018-11-21T22:32:45.811Z,13.08
2018-11-21T22:35:12.978Z,13.70
2018-11-21T22:37:39.618Z,12.70
2018-11-21T22:40:06.306Z,12.03
2018-11-21T22:42:33.032Z,11.80
2018-11-21T22:44:59.439Z,11.93
2018-11-21T22:47:26.066Z,13.08
2018-11-21T22:49:53.222Z,13.38
2018-11-21T22:52:19.880Z,12.65
2018-11-21T22:54:46.380Z,14.35
2018-11-21T22:57:12.994Z,11.43
2018-11-21T22:59:39.503Z,12.60
2018-11-21T23:02:06.103Z,13.68
2018-11-21T23:04:33.024Z,13.70
2018-11-21T23:06:59.790Z,12.90
2018-11-21T23:09:26.521Z,12.93
2018-11-21T23:11:53.228Z,12.03
2018-11-21T23:14:19.914Z,13.15
2018-11-21T23:16:46.370Z,12.75
2018-11-21T23:19:12.963Z,13.40
2018-11-21T23:21:39.586Z,12.53
2018-11-21T23:24:06.155Z,11.20
2018-11-21T23:26:33.403Z,10.48
2018-11-21T23:29:00.266Z,12.18
2018-11-21T23:31:27.157Z,12.00
2018-11-21T23:33:54.144Z,12.60
2018-11-21T23:36:20.553Z,11.45
2018-11-21T23:38:47.205Z,12.85
2018-11-21T23:41:13.911Z,12.90
2018-11-21T23:43:40.612Z,12.40
2018-11-21T23:46:07.218Z,11.90
2018-11-21T23:48:34.203Z,12.68
2018-11-21T23:51:01.155Z,11.22
2018-11-21T23:53:27.915Z,11.80
2018-11-21T23:55:54.817Z,13.53
2018-11-21T23:58:21.441Z,12.28
